sensor_id;sensor_type;location;lat;lon;timestamp;P1;durP1;ratioP1;P2;durP2;ratioP2
38785;SDS011;24535;45.508;12.252;2024-01-30T00:00:21;62.83;;;44.72;;
38785;SDS011;24535;45.508;12.252;2024-01-30T00:02:47;56.65;;;44.20;;
38785;SDS011;24535;45.508;12.252;2024-01-30T00:05:12;63.72;;;44.97;;
38785;SDS011;24535;45.508;12.252;2024-01-30T00:07:38;64.13;;;46.38;;
38785;SDS011;24535;45.508;12.252;2024-01-30T00:10:03;64.18;;;45.13;;
38785;SDS011;24535;45.508;12.252;2024-01-30T00:12:31;64.35;;;48.58;;
38785;SDS011;24535;45.508;12.252;2024-01-30T00:14:57;64.20;;;49.38;;
38785;SDS011;24535;45.508;12.252;2024-01-30T00:17:23;78.25;;;52.80;;
38785;SDS011;24535;45.508;12.252;2024-01-30T00:19:50;70.55;;;50.35;;
38785;SDS011;24535;45.508;12.252;2024-01-30T00:22:15;68.30;;;50.58;;
38785;SDS011;24535;45.508;12.252;2024-01-30T00:24:41;66.22;;;49.08;;
38785;SDS011;24535;45.508;12.252;2024-01-30T00:27:07;71.85;;;52.08;;
38785;SDS011;24535;45.508;12.252;2024-01-30T00:29:33;67.95;;;50.97;;
38785;SDS011;24535;45.508;12.252;2024-01-30T00:31:59;70.35;;;50.08;;
38785;SDS011;24535;45.508;12.252;2024-01-30T00:34:25;68.95;;;51.70;;
38785;SDS011;24535;45.508;12.252;2024-01-30T00:36:50;68.10;;;49.50;;
38785;SDS011;24535;45.508;12.252;2024-01-30T00:39:16;64.47;;;48.70;;
38785;SDS011;24535;45.508;12.252;2024-01-30T00:41:41;72.30;;;51.75;;
38785;SDS011;24535;45.508;12.252;2024-01-30T00:44:07;71.35;;;51.28;;
38785;SDS011;24535;45.508;12.252;2024-01-30T00:46:32;76.47;;;52.65;;
38785;SDS011;24535;45.508;12.252;2024-01-30T00:48:58;70.13;;;48.80;;
38785;SDS011;24535;45.508;12.252;2024-01-30T00:51:23;74.97;;;54.83;;
38785;SDS011;24535;45.508;12.252;2024-01-30T00:53:49;76.32;;;53.47;;
38785;SDS011;24535;45.508;12.252;2024-01-30T00:56:14;78.25;;;53.85;;
38785;SDS011;24535;45.508;12.252;2024-01-30T00:58:43;72.47;;;52.10;;
38785;SDS011;24535;45.508;12.252;2024-01-30T01:01:08;75.38;;;53.17;;
38785;SDS011;24535;45.508;12.252;2024-01-30T01:03:34;74.18;;;53.10;;
38785;SDS011;24535;45.508;12.252;2024-01-30T01:05:59;72.15;;;52.72;;
38785;SDS011;24535;45.508;12.252;2024-01-30T01:08:25;73.25;;;52.25;;
38785;SDS011;24535;45.508;12.252;2024-01-30T01:10:50;81.50;;;54.33;;
38785;SDS011;24535;45.508;12.252;2024-01-30T01:13:16;72.57;;;52.00;;
38785;SDS011;24535;45.508;12.252;2024-01-30T01:15:41;68.78;;;50.17;;
38785;SDS011;24535;45.508;12.252;2024-01-30T01:18:08;67.50;;;49.05;;
38785;SDS011;24535;45.508;12.252;2024-01-30T01:20:33;65.00;;;47.70;;
38785;SDS011;24535;45.508;12.252;2024-01-30T01:22:59;62.30;;;47.85;;
38785;SDS011;24535;45.508;12.252;2024-01-30T01:25:24;72.68;;;51.05;;
38785;SDS011;24535;45.508;12.252;2024-01-30T01:27:50;66.00;;;49.08;;
38785;SDS011;24535;45.508;12.252;2024-01-30T01:30:17;65.97;;;49.47;;
38785;SDS011;24535;45.508;12.252;2024-01-30T01:32:54;59.10;;;46.33;;
38785;SDS011;24535;45.508;12.252;2024-01-30T01:35:25;60.90;;;47.30;;
38785;SDS011;24535;45.508;12.252;2024-01-30T01:37:51;62.65;;;49.80;;
38785;SDS011;24535;45.508;12.252;2024-01-30T01:40:23;64.85;;;49.47;;
38785;SDS011;24535;45.508;12.252;2024-01-30T01:42:52;60.00;;;44.78;;
38785;SDS011;24535;45.508;12.252;2024-01-30T01:47:44;57.88;;;45.38;;
38785;SDS011;24535;45.508;12.252;2024-01-30T01:50:12;58.92;;;47.55;;
38785;SDS011;24535;45.508;12.252;2024-01-30T01:52:43;57.28;;;44.92;;
38785;SDS011;24535;45.508;12.252;2024-01-30T01:55:10;57.92;;;45.53;;
38785;SDS011;24535;45.508;12.252;2024-01-30T01:57:37;57.63;;;46.50;;
38785;SDS011;24535;45.508;12.252;2024-01-30T02:00:03;58.15;;;46.70;;
38785;SDS011;24535;45.508;12.252;2024-01-30T02:02:34;55.10;;;44.38;;
38785;SDS011;24535;45.508;12.252;2024-01-30T02:05:01;56.40;;;45.38;;
38785;SDS011;24535;45.508;12.252;2024-01-30T02:07:27;57.28;;;44.35;;
38785;SDS011;24535;45.508;12.252;2024-01-30T02:09:53;56.25;;;43.38;;
38785;SDS011;24535;45.508;12.252;2024-01-30T02:12:19;53.25;;;45.00;;
38785;SDS011;24535;45.508;12.252;2024-01-30T02:14:45;58.95;;;45.53;;
38785;SDS011;24535;45.508;12.252;2024-01-30T02:17:14;55.47;;;44.72;;
38785;SDS011;24535;45.508;12.252;2024-01-30T02:19:40;52.70;;;41.95;;
38785;SDS011;24535;45.508;12.252;2024-01-30T02:22:06;51.38;;;42.65;;
38785;SDS011;24535;45.508;12.252;2024-01-30T02:24:32;56.25;;;43.20;;
38785;SDS011;24535;45.508;12.252;2024-01-30T02:26:58;52.08;;;43.22;;
38785;SDS011;24535;45.508;12.252;2024-01-30T02:29:24;55.58;;;42.15;;
38785;SDS011;24535;45.508;12.252;2024-01-30T02:31:49;51.38;;;42.67;;
38785;SDS011;24535;45.508;12.252;2024-01-30T02:34:15;54.50;;;42.63;;
38785;SDS011;24535;45.508;12.252;2024-01-30T02:36:43;55.30;;;43.28;;
38785;SDS011;24535;45.508;12.252;2024-01-30T02:39:09;48.20;;;40.93;;
38785;SDS011;24535;45.508;12.252;2024-01-30T02:41:34;46.00;;;39.78;;
38785;SDS011;24535;45.508;12.252;2024-01-30T02:44:00;46.90;;;39.72;;
38785;SDS011;24535;45.508;12.252;2024-01-30T02:46:26;47.92;;;40.08;;
38785;SDS011;24535;45.508;12.252;2024-01-30T02:48:52;49.47;;;40.10;;
38785;SDS011;24535;45.508;12.252;2024-01-30T02:51:17;49.83;;;42.03;;
38785;SDS011;24535;45.508;12.252;2024-01-30T02:53:43;44.53;;;39.50;;
38785;SDS011;24535;45.508;12.252;2024-01-30T02:56:08;50.85;;;40.85;;
38785;SDS011;24535;45.508;12.252;2024-01-30T02:58:35;52.67;;;41.78;;
38785;SDS011;24535;45.508;12.252;2024-01-30T03:01:01;46.60;;;40.60;;
38785;SDS011;24535;45.508;12.252;2024-01-30T03:03:27;48.72;;;40.67;;
38785;SDS011;24535;45.508;12.252;2024-01-30T03:05:53;49.55;;;41.05;;
38785;SDS011;24535;45.508;12.252;2024-01-30T03:08:19;49.83;;;40.80;;
38785;SDS011;24535;45.508;12.252;2024-01-30T03:10:46;49.72;;;40.80;;
38785;SDS011;24535;45.508;12.252;2024-01-30T03:13:11;48.38;;;40.15;;
38785;SDS011;24535;45.508;12.252;2024-01-30T03:15:37;48.90;;;40.60;;
38785;SDS011;24535;45.508;12.252;2024-01-30T03:18:02;52.22;;;41.70;;
38785;SDS011;24535;45.508;12.252;2024-01-30T03:20:31;47.05;;;39.78;;
38785;SDS011;24535;45.508;12.252;2024-01-30T03:22:57;47.60;;;40.53;;
38785;SDS011;24535;45.508;12.252;2024-01-30T03:25:24;49.88;;;40.53;;
38785;SDS011;24535;45.508;12.252;2024-01-30T03:27:50;44.75;;;38.75;;
38785;SDS011;24535;45.508;12.252;2024-01-30T03:30:16;48.30;;;39.00;;
38785;SDS011;24535;45.508;12.252;2024-01-30T03:32:42;52.08;;;41.30;;
38785;SDS011;24535;45.508;12.252;2024-01-30T03:35:07;47.13;;;39.08;;
38785;SDS011;24535;45.508;12.252;2024-01-30T03:37:33;45.45;;;38.63;;
38785;SDS011;24535;45.508;12.252;2024-01-30T03:39:59;46.33;;;39.55;;
38785;SDS011;24535;45.508;12.252;2024-01-30T03:42:24;46.33;;;38.40;;
38785;SDS011;24535;45.508;12.252;2024-01-30T03:44:50;46.42;;;39.13;;
38785;SDS011;24535;45.508;12.252;2024-01-30T03:47:18;49.07;;;39.83;;
38785;SDS011;24535;45.508;12.252;2024-01-30T03:49:45;43.15;;;37.95;;
38785;SDS011;24535;45.508;12.252;2024-01-30T03:52:11;44.45;;;37.90;;
38785;SDS011;24535;45.508;12.252;2024-01-30T03:54:36;48.60;;;38.63;;
38785;SDS011;24535;45.508;12.252;2024-01-30T03:57:02;46.40;;;38.58;;
38785;SDS011;24535;45.508;12.252;2024-01-30T03:59:27;46.80;;;38.95;;
38785;SDS011;24535;45.508;12.252;2024-01-30T04:01:53;46.35;;;38.65;;
38785;SDS011;24535;45.508;12.252;2024-01-30T04:04:19;45.75;;;39.63;;
38785;SDS011;24535;45.508;12.252;2024-01-30T04:06:44;44.20;;;38.15;;
38785;SDS011;24535;45.508;12.252;2024-01-30T04:09:11;43.60;;;36.40;;
38785;SDS011;24535;45.508;12.252;2024-01-30T04:11:38;44.88;;;37.45;;
38785;SDS011;24535;45.508;12.252;2024-01-30T04:14:03;40.95;;;36.60;;
38785;SDS011;24535;45.508;12.252;2024-01-30T04:16:29;42.33;;;35.47;;
38785;SDS011;24535;45.508;12.252;2024-01-30T04:18:54;42.63;;;36.33;;
38785;SDS011;24535;45.508;12.252;2024-01-30T04:21:23;39.90;;;33.75;;
38785;SDS011;24535;45.508;12.252;2024-01-30T04:23:48;39.30;;;35.03;;
38785;SDS011;24535;45.508;12.252;2024-01-30T04:26:14;42.45;;;35.42;;
38785;SDS011;24535;45.508;12.252;2024-01-30T04:28:45;39.75;;;34.70;;
38785;SDS011;24535;45.508;12.252;2024-01-30T04:31:11;40.67;;;35.08;;
38785;SDS011;24535;45.508;12.252;2024-01-30T04:33:37;40.20;;;35.28;;
38785;SDS011;24535;45.508;12.252;2024-01-30T04:36:03;38.83;;;33.90;;
38785;SDS011;24535;45.508;12.252;2024-01-30T04:38:29;37.65;;;33.42;;
38785;SDS011;24535;45.508;12.252;2024-01-30T04:40:55;40.40;;;35.42;;
38785;SDS011;24535;45.508;12.252;2024-01-30T04:43:20;36.80;;;32.88;;
38785;SDS011;24535;45.508;12.252;2024-01-30T04:45:46;37.92;;;33.75;;
38785;SDS011;24535;45.508;12.252;2024-01-30T04:48:12;39.08;;;31.33;;
38785;SDS011;24535;45.508;12.252;2024-01-30T04:50:37;38.42;;;34.25;;
38785;SDS011;24535;45.508;12.252;2024-01-30T04:53:03;37.97;;;33.50;;
38785;SDS011;24535;45.508;12.252;2024-01-30T04:55:28;36.00;;;32.22;;
38785;SDS011;24535;45.508;12.252;2024-01-30T04:57:54;37.50;;;33.42;;
38785;SDS011;24535;45.508;12.252;2024-01-30T05:00:19;38.72;;;32.67;;
38785;SDS011;24535;45.508;12.252;2024-01-30T05:02:45;39.35;;;33.63;;
38785;SDS011;24535;45.508;12.252;2024-01-30T05:05:10;36.38;;;32.30;;
38785;SDS011;24535;45.508;12.252;2024-01-30T05:07:36;36.53;;;32.60;;
38785;SDS011;24535;45.508;12.252;2024-01-30T05:10:02;35.88;;;31.83;;
38785;SDS011;24535;45.508;12.252;2024-01-30T05:12:28;37.78;;;32.55;;
38785;SDS011;24535;45.508;12.252;2024-01-30T05:14:53;35.25;;;31.58;;
38785;SDS011;24535;45.508;12.252;2024-01-30T05:17:19;36.00;;;31.83;;
38785;SDS011;24535;45.508;12.252;2024-01-30T05:19:45;34.22;;;30.58;;
38785;SDS011;24535;45.508;12.252;2024-01-30T05:22:10;34.67;;;30.55;;
38785;SDS011;24535;45.508;12.252;2024-01-30T05:24:36;31.85;;;28.25;;
38785;SDS011;24535;45.508;12.252;2024-01-30T05:27:02;32.80;;;29.50;;
38785;SDS011;24535;45.508;12.252;2024-01-30T05:29:27;34.38;;;30.70;;
38785;SDS011;24535;45.508;12.252;2024-01-30T05:31:53;31.10;;;27.75;;
38785;SDS011;24535;45.508;12.252;2024-01-30T05:34:18;32.53;;;28.98;;
38785;SDS011;24535;45.508;12.252;2024-01-30T05:36:44;32.55;;;29.17;;
38785;SDS011;24535;45.508;12.252;2024-01-30T05:39:09;32.50;;;29.13;;
38785;SDS011;24535;45.508;12.252;2024-01-30T05:41:35;35.30;;;28.63;;
38785;SDS011;24535;45.508;12.252;2024-01-30T05:44:00;33.65;;;28.40;;
38785;SDS011;24535;45.508;12.252;2024-01-30T05:46:26;32.67;;;28.15;;
38785;SDS011;24535;45.508;12.252;2024-01-30T05:48:52;32.42;;;28.92;;
38785;SDS011;24535;45.508;12.252;2024-01-30T05:51:17;31.50;;;26.92;;
38785;SDS011;24535;45.508;12.252;2024-01-30T05:53:42;31.83;;;27.40;;
38785;SDS011;24535;45.508;12.252;2024-01-30T05:56:08;31.00;;;27.77;;
38785;SDS011;24535;45.508;12.252;2024-01-30T05:58:33;31.33;;;27.08;;
38785;SDS011;24535;45.508;12.252;2024-01-30T06:00:59;32.10;;;28.60;;
38785;SDS011;24535;45.508;12.252;2024-01-30T06:03:24;30.58;;;27.23;;
38785;SDS011;24535;45.508;12.252;2024-01-30T06:05:50;29.25;;;26.05;;
38785;SDS011;24535;45.508;12.252;2024-01-30T06:08:15;29.35;;;26.27;;
38785;SDS011;24535;45.508;12.252;2024-01-30T06:10:41;29.13;;;26.10;;
38785;SDS011;24535;45.508;12.252;2024-01-30T06:13:06;30.55;;;27.25;;
38785;SDS011;24535;45.508;12.252;2024-01-30T06:15:32;28.92;;;25.83;;
38785;SDS011;24535;45.508;12.252;2024-01-30T06:17:58;30.85;;;26.38;;
38785;SDS011;24535;45.508;12.252;2024-01-30T06:20:23;29.73;;;26.13;;
38785;SDS011;24535;45.508;12.252;2024-01-30T06:22:49;30.85;;;26.45;;
38785;SDS011;24535;45.508;12.252;2024-01-30T06:25:14;29.30;;;26.25;;
38785;SDS011;24535;45.508;12.252;2024-01-30T06:27:41;28.23;;;25.23;;
38785;SDS011;24535;45.508;12.252;2024-01-30T06:30:06;29.30;;;26.20;;
38785;SDS011;24535;45.508;12.252;2024-01-30T06:32:32;27.85;;;24.50;;
38785;SDS011;24535;45.508;12.252;2024-01-30T06:35:02;28.67;;;25.67;;
38785;SDS011;24535;45.508;12.252;2024-01-30T06:37:28;28.50;;;25.00;;
38785;SDS011;24535;45.508;12.252;2024-01-30T06:39:53;28.80;;;25.70;;
38785;SDS011;24535;45.508;12.252;2024-01-30T06:42:19;27.23;;;24.25;;
38785;SDS011;24535;45.508;12.252;2024-01-30T06:44:44;28.10;;;24.65;;
38785;SDS011;24535;45.508;12.252;2024-01-30T06:47:10;27.13;;;24.30;;
38785;SDS011;24535;45.508;12.252;2024-01-30T06:49:36;28.27;;;25.08;;
38785;SDS011;24535;45.508;12.252;2024-01-30T06:52:04;30.98;;;24.27;;
38785;SDS011;24535;45.508;12.252;2024-01-30T06:54:30;31.15;;;24.35;;
38785;SDS011;24535;45.508;12.252;2024-01-30T06:56:56;27.55;;;24.63;;
38785;SDS011;24535;45.508;12.252;2024-01-30T06:59:21;28.70;;;24.52;;
38785;SDS011;24535;45.508;12.252;2024-01-30T07:01:47;27.58;;;23.48;;
38785;SDS011;24535;45.508;12.252;2024-01-30T07:04:12;27.55;;;24.65;;
38785;SDS011;24535;45.508;12.252;2024-01-30T07:06:38;27.85;;;23.15;;
38785;SDS011;24535;45.508;12.252;2024-01-30T07:09:06;26.60;;;23.80;;
38785;SDS011;24535;45.508;12.252;2024-01-30T07:11:32;26.05;;;23.23;;
38785;SDS011;24535;45.508;12.252;2024-01-30T07:13:57;25.75;;;23.10;;
38785;SDS011;24535;45.508;12.252;2024-01-30T07:16:22;27.02;;;24.23;;
38785;SDS011;24535;45.508;12.252;2024-01-30T07:18:48;27.60;;;24.60;;
38785;SDS011;24535;45.508;12.252;2024-01-30T07:21:14;28.05;;;24.25;;
38785;SDS011;24535;45.508;12.252;2024-01-30T07:23:40;27.48;;;24.67;;
38785;SDS011;24535;45.508;12.252;2024-01-30T07:26:07;28.58;;;25.48;;
38785;SDS011;24535;45.508;12.252;2024-01-30T07:28:33;27.73;;;24.77;;
38785;SDS011;24535;45.508;12.252;2024-01-30T07:30:59;28.02;;;24.92;;
38785;SDS011;24535;45.508;12.252;2024-01-30T07:33:25;26.25;;;23.38;;
38785;SDS011;24535;45.508;12.252;2024-01-30T07:35:52;28.73;;;23.85;;
38785;SDS011;24535;45.508;12.252;2024-01-30T07:38:17;28.80;;;24.38;;
38785;SDS011;24535;45.508;12.252;2024-01-30T07:40:43;29.30;;;23.83;;
38785;SDS011;24535;45.508;12.252;2024-01-30T07:43:08;26.70;;;23.88;;
38785;SDS011;24535;45.508;12.252;2024-01-30T07:45:34;27.55;;;24.05;;
38785;SDS011;24535;45.508;12.252;2024-01-30T07:48:00;28.10;;;25.08;;
38785;SDS011;24535;45.508;12.252;2024-01-30T07:50:25;27.73;;;24.75;;
38785;SDS011;24535;45.508;12.252;2024-01-30T07:52:51;26.05;;;23.35;;
38785;SDS011;24535;45.508;12.252;2024-01-30T07:55:20;27.17;;;24.13;;
38785;SDS011;24535;45.508;12.252;2024-01-30T07:57:47;25.90;;;23.23;;
38785;SDS011;24535;45.508;12.252;2024-01-30T08:00:13;25.95;;;23.33;;
38785;SDS011;24535;45.508;12.252;2024-01-30T08:02:39;27.08;;;23.58;;
38785;SDS011;24535;45.508;12.252;2024-01-30T08:05:04;27.48;;;24.65;;
38785;SDS011;24535;45.508;12.252;2024-01-30T08:07:30;27.35;;;24.48;;
38785;SDS011;24535;45.508;12.252;2024-01-30T08:09:55;28.08;;;25.10;;
38785;SDS011;24535;45.508;12.252;2024-01-30T08:12:21;29.15;;;24.27;;
38785;SDS011;24535;45.508;12.252;2024-01-30T08:14:46;26.92;;;24.02;;
38785;SDS011;24535;45.508;12.252;2024-01-30T08:17:12;28.77;;;25.80;;
38785;SDS011;24535;45.508;12.252;2024-01-30T08:19:37;26.50;;;23.77;;
38785;SDS011;24535;45.508;12.252;2024-01-30T08:22:03;28.60;;;25.50;;
38785;SDS011;24535;45.508;12.252;2024-01-30T08:24:28;30.73;;;24.92;;
38785;SDS011;24535;45.508;12.252;2024-01-30T08:26:54;27.35;;;24.52;;
38785;SDS011;24535;45.508;12.252;2024-01-30T08:29:19;27.88;;;24.98;;
38785;SDS011;24535;45.508;12.252;2024-01-30T08:31:44;31.05;;;26.08;;
38785;SDS011;24535;45.508;12.252;2024-01-30T08:34:11;29.20;;;26.20;;
38785;SDS011;24535;45.508;12.252;2024-01-30T08:36:36;29.08;;;25.75;;
38785;SDS011;24535;45.508;12.252;2024-01-30T08:39:02;30.10;;;27.02;;
38785;SDS011;24535;45.508;12.252;2024-01-30T08:41:28;30.52;;;27.23;;
38785;SDS011;24535;45.508;12.252;2024-01-30T08:43:53;28.70;;;25.85;;
38785;SDS011;24535;45.508;12.252;2024-01-30T08:46:19;31.15;;;27.42;;
38785;SDS011;24535;45.508;12.252;2024-01-30T08:48:46;30.20;;;26.60;;
38785;SDS011;24535;45.508;12.252;2024-01-30T08:51:12;30.08;;;26.92;;
38785;SDS011;24535;45.508;12.252;2024-01-30T08:53:39;30.95;;;27.65;;
38785;SDS011;24535;45.508;12.252;2024-01-30T08:56:05;29.90;;;26.75;;
38785;SDS011;24535;45.508;12.252;2024-01-30T08:58:31;28.98;;;25.88;;
38785;SDS011;24535;45.508;12.252;2024-01-30T09:00:57;26.13;;;23.42;;
38785;SDS011;24535;45.508;12.252;2024-01-30T09:03:22;26.98;;;24.10;;
38785;SDS011;24535;45.508;12.252;2024-01-30T09:05:47;26.92;;;24.05;;
38785;SDS011;24535;45.508;12.252;2024-01-30T09:08:13;25.30;;;22.55;;
38785;SDS011;24535;45.508;12.252;2024-01-30T09:10:39;28.63;;;24.67;;
38785;SDS011;24535;45.508;12.252;2024-01-30T09:13:04;26.55;;;23.70;;
38785;SDS011;24535;45.508;12.252;2024-01-30T09:15:29;28.15;;;25.13;;
38785;SDS011;24535;45.508;12.252;2024-01-30T09:17:55;26.45;;;23.60;;
38785;SDS011;24535;45.508;12.252;2024-01-30T09:20:20;26.00;;;22.98;;
38785;SDS011;24535;45.508;12.252;2024-01-30T09:22:47;27.17;;;22.83;;
38785;SDS011;24535;45.508;12.252;2024-01-30T09:25:13;26.08;;;23.30;;
38785;SDS011;24535;45.508;12.252;2024-01-30T09:27:38;27.25;;;23.10;;
38785;SDS011;24535;45.508;12.252;2024-01-30T09:30:05;26.95;;;23.90;;
38785;SDS011;24535;45.508;12.252;2024-01-30T09:32:31;27.58;;;23.80;;
38785;SDS011;24535;45.508;12.252;2024-01-30T09:34:56;31.15;;;23.10;;
38785;SDS011;24535;45.508;12.252;2024-01-30T09:37:22;30.23;;;22.92;;
38785;SDS011;24535;45.508;12.252;2024-01-30T09:39:47;28.67;;;24.10;;
38785;SDS011;24535;45.508;12.252;2024-01-30T09:45:15;27.27;;;24.38;;
38785;SDS011;24535;45.508;12.252;2024-01-30T09:47:44;26.63;;;23.30;;
38785;SDS011;24535;45.508;12.252;2024-01-30T09:50:10;27.85;;;22.67;;
38785;SDS011;24535;45.508;12.252;2024-01-30T09:52:37;25.25;;;21.88;;
38785;SDS011;24535;45.508;12.252;2024-01-30T09:55:03;25.83;;;22.80;;
38785;SDS011;24535;45.508;12.252;2024-01-30T09:57:32;26.27;;;21.40;;
38785;SDS011;24535;45.508;12.252;2024-01-30T09:59:58;26.08;;;21.38;;
38785;SDS011;24535;45.508;12.252;2024-01-30T10:02:23;25.88;;;22.23;;
38785;SDS011;24535;45.508;12.252;2024-01-30T10:04:49;27.95;;;21.50;;
38785;SDS011;24535;45.508;12.252;2024-01-30T10:07:16;22.83;;;20.40;;
38785;SDS011;24535;45.508;12.252;2024-01-30T10:09:42;29.10;;;23.75;;
38785;SDS011;24535;45.508;12.252;2024-01-30T10:12:11;24.15;;;21.55;;
38785;SDS011;24535;45.508;12.252;2024-01-30T10:14:37;26.10;;;21.50;;
38785;SDS011;24535;45.508;12.252;2024-01-30T10:17:09;24.77;;;20.70;;
38785;SDS011;24535;45.508;12.252;2024-01-30T10:19:36;27.13;;;23.13;;
38785;SDS011;24535;45.508;12.252;2024-01-30T10:22:03;24.65;;;21.17;;
38785;SDS011;24535;45.508;12.252;2024-01-30T10:24:29;23.15;;;20.75;;
38785;SDS011;24535;45.508;12.252;2024-01-30T10:26:55;25.58;;;21.75;;
38785;SDS011;24535;45.508;12.252;2024-01-30T10:29:21;28.15;;;21.48;;
38785;SDS011;24535;45.508;12.252;2024-01-30T10:31:57;24.73;;;21.58;;
38785;SDS011;24535;45.508;12.252;2024-01-30T10:34:29;22.63;;;19.35;;
38785;SDS011;24535;45.508;12.252;2024-01-30T10:36:59;26.60;;;20.02;;
38785;SDS011;24535;45.508;12.252;2024-01-30T10:39:32;26.00;;;21.10;;
38785;SDS011;24535;45.508;12.252;2024-01-30T10:42:03;24.98;;;21.13;;
38785;SDS011;24535;45.508;12.252;2024-01-30T10:44:33;23.58;;;21.13;;
38785;SDS011;24535;45.508;12.252;2024-01-30T10:47:03;23.42;;;20.73;;
38785;SDS011;24535;45.508;12.252;2024-01-30T10:49:35;25.02;;;21.80;;
38785;SDS011;24535;45.508;12.252;2024-01-30T10:52:01;24.13;;;21.55;;
38785;SDS011;24535;45.508;12.252;2024-01-30T10:54:28;24.42;;;21.80;;
38785;SDS011;24535;45.508;12.252;2024-01-30T10:56:54;25.15;;;21.73;;
38785;SDS011;24535;45.508;12.252;2024-01-30T10:59:20;24.98;;;21.52;;
38785;SDS011;24535;45.508;12.252;2024-01-30T11:01:49;26.03;;;21.97;;
38785;SDS011;24535;45.508;12.252;2024-01-30T11:04:16;27.63;;;23.27;;
38785;SDS011;24535;45.508;12.252;2024-01-30T11:06:41;23.88;;;21.33;;
38785;SDS011;24535;45.508;12.252;2024-01-30T11:09:11;25.45;;;22.70;;
38785;SDS011;24535;45.508;12.252;2024-01-30T11:11:57;23.92;;;21.23;;
38785;SDS011;24535;45.508;12.252;2024-01-30T11:14:27;25.85;;;21.40;;
38785;SDS011;24535;45.508;12.252;2024-01-30T11:16:57;26.40;;;22.17;;
38785;SDS011;24535;45.508;12.252;2024-01-30T11:19:27;26.52;;;22.75;;
38785;SDS011;24535;45.508;12.252;2024-01-30T11:21:56;24.83;;;22.08;;
38785;SDS011;24535;45.508;12.252;2024-01-30T11:24:24;28.33;;;22.80;;
38785;SDS011;24535;45.508;12.252;2024-01-30T11:26:54;27.13;;;23.30;;
38785;SDS011;24535;45.508;12.252;2024-01-30T11:29:24;26.90;;;22.80;;
38785;SDS011;24535;45.508;12.252;2024-01-30T11:31:53;25.02;;;22.05;;
38785;SDS011;24535;45.508;12.252;2024-01-30T11:34:25;25.00;;;21.90;;
38785;SDS011;24535;45.508;12.252;2024-01-30T11:36:52;26.70;;;21.60;;
38785;SDS011;24535;45.508;12.252;2024-01-30T11:39:26;29.60;;;23.48;;
38785;SDS011;24535;45.508;12.252;2024-01-30T11:41:52;27.10;;;21.10;;
38785;SDS011;24535;45.508;12.252;2024-01-30T11:44:21;27.17;;;22.25;;
38785;SDS011;24535;45.508;12.252;2024-01-30T11:49:13;26.15;;;21.45;;
38785;SDS011;24535;45.508;12.252;2024-01-30T11:51:38;28.80;;;22.67;;
38785;SDS011;24535;45.508;12.252;2024-01-30T11:54:04;27.42;;;22.77;;
38785;SDS011;24535;45.508;12.252;2024-01-30T11:56:30;24.25;;;20.92;;
38785;SDS011;24535;45.508;12.252;2024-01-30T11:58:55;25.60;;;22.67;;
38785;SDS011;24535;45.508;12.252;2024-01-30T12:01:20;26.52;;;21.60;;
38785;SDS011;24535;45.508;12.252;2024-01-30T12:03:50;25.48;;;21.15;;
38785;SDS011;24535;45.508;12.252;2024-01-30T12:06:15;28.65;;;22.23;;
38785;SDS011;24535;45.508;12.252;2024-01-30T12:08:41;23.73;;;20.90;;
38785;SDS011;24535;45.508;12.252;2024-01-30T12:11:07;26.48;;;22.25;;
38785;SDS011;24535;45.508;12.252;2024-01-30T12:13:33;27.23;;;21.10;;
38785;SDS011;24535;45.508;12.252;2024-01-30T12:15:59;23.85;;;20.63;;
38785;SDS011;24535;45.508;12.252;2024-01-30T12:18:26;26.58;;;22.25;;
38785;SDS011;24535;45.508;12.252;2024-01-30T12:20:58;28.00;;;21.35;;
38785;SDS011;24535;45.508;12.252;2024-01-30T12:23:24;26.60;;;20.33;;
38785;SDS011;24535;45.508;12.252;2024-01-30T12:25:51;26.77;;;22.83;;
38785;SDS011;24535;45.508;12.252;2024-01-30T12:28:17;24.88;;;21.13;;
38785;SDS011;24535;45.508;12.252;2024-01-30T12:30:42;28.45;;;21.63;;
38785;SDS011;24535;45.508;12.252;2024-01-30T12:33:08;27.95;;;21.88;;
38785;SDS011;24535;45.508;12.252;2024-01-30T12:35:35;26.90;;;21.75;;
38785;SDS011;24535;45.508;12.252;2024-01-30T12:38:01;28.48;;;22.73;;
38785;SDS011;24535;45.508;12.252;2024-01-30T12:40:27;28.90;;;22.55;;
38785;SDS011;24535;45.508;12.252;2024-01-30T12:42:53;27.77;;;21.92;;
38785;SDS011;24535;45.508;12.252;2024-01-30T12:45:19;29.30;;;21.63;;
38785;SDS011;24535;45.508;12.252;2024-01-30T12:47:46;25.98;;;21.02;;
38785;SDS011;24535;45.508;12.252;2024-01-30T12:50:12;26.30;;;22.25;;
38785;SDS011;24535;45.508;12.252;2024-01-30T12:52:40;28.17;;;21.93;;
38785;SDS011;24535;45.508;12.252;2024-01-30T12:55:06;29.95;;;22.25;;
38785;SDS011;24535;45.508;12.252;2024-01-30T12:57:32;28.58;;;23.17;;
38785;SDS011;24535;45.508;12.252;2024-01-30T12:59:57;31.23;;;22.85;;
38785;SDS011;24535;45.508;12.252;2024-01-30T13:02:23;29.08;;;21.88;;
38785;SDS011;24535;45.508;12.252;2024-01-30T13:04:48;29.52;;;22.60;;
38785;SDS011;24535;45.508;12.252;2024-01-30T13:07:14;27.58;;;22.38;;
38785;SDS011;24535;45.508;12.252;2024-01-30T13:09:39;30.25;;;23.15;;
38785;SDS011;24535;45.508;12.252;2024-01-30T13:12:05;29.02;;;22.05;;
38785;SDS011;24535;45.508;12.252;2024-01-30T13:14:30;28.40;;;22.17;;
38785;SDS011;24535;45.508;12.252;2024-01-30T13:16:56;28.65;;;22.08;;
38785;SDS011;24535;45.508;12.252;2024-01-30T13:19:21;30.98;;;23.60;;
38785;SDS011;24535;45.508;12.252;2024-01-30T13:21:47;24.73;;;21.15;;
38785;SDS011;24535;45.508;12.252;2024-01-30T13:24:13;35.25;;;24.52;;
38785;SDS011;24535;45.508;12.252;2024-01-30T13:26:39;29.13;;;22.77;;
38785;SDS011;24535;45.508;12.252;2024-01-30T13:29:04;30.98;;;24.80;;
38785;SDS011;24535;45.508;12.252;2024-01-30T13:31:30;30.90;;;23.88;;
38785;SDS011;24535;45.508;12.252;2024-01-30T13:33:55;31.05;;;23.20;;
38785;SDS011;24535;45.508;12.252;2024-01-30T13:36:21;30.80;;;22.73;;
38785;SDS011;24535;45.508;12.252;2024-01-30T13:38:47;31.02;;;24.70;;
38785;SDS011;24535;45.508;12.252;2024-01-30T13:41:13;31.23;;;23.52;;
38785;SDS011;24535;45.508;12.252;2024-01-30T13:43:38;31.60;;;24.75;;
38785;SDS011;24535;45.508;12.252;2024-01-30T13:46:04;30.27;;;23.48;;
38785;SDS011;24535;45.508;12.252;2024-01-30T13:48:30;30.10;;;24.33;;
38785;SDS011;24535;45.508;12.252;2024-01-30T13:50:56;31.52;;;23.27;;
38785;SDS011;24535;45.508;12.252;2024-01-30T13:53:21;34.15;;;23.75;;
38785;SDS011;24535;45.508;12.252;2024-01-30T13:55:47;30.20;;;23.17;;
38785;SDS011;24535;45.508;12.252;2024-01-30T13:58:12;30.00;;;23.13;;
38785;SDS011;24535;45.508;12.252;2024-01-30T14:00:38;30.40;;;24.00;;
38785;SDS011;24535;45.508;12.252;2024-01-30T14:03:03;34.80;;;24.38;;
38785;SDS011;24535;45.508;12.252;2024-01-30T14:05:29;28.55;;;22.17;;
38785;SDS011;24535;45.508;12.252;2024-01-30T14:07:55;26.65;;;23.23;;
38785;SDS011;24535;45.508;12.252;2024-01-30T14:10:22;32.33;;;23.33;;